Terminal Aerodrome Forecast
Issued by NWS

Home | Current Version | Previous Version | Text Only | Print | Product List | Glossary On
Versions: 1 2 3 4 5 6 7 8 9 10 11 12 13 14 15 16 17 18
657
FTUS41 KCAR 262333
TAFFVE
TAF
KFVE 262333Z 2700/2724 00000KT P6SM SCT250
     FM270700 11004KT P6SM OVC040
     FM271000 12006KT 2SM -SN SCT020 OVC035
     FM271200 13007KT 1SM -SN OVC020
     FM271600 14010KT 1/2SM SN FG SCT003 OVC007=

USA.gov is the U.S. government's official web portal to all federal, state and local government web resources and services.